sensor_id;sensor_type;location;lat;lon;timestamp;P1;durP1;ratioP1;P2;durP2;ratioP2
7162;SDS011;3623;47.098;15.446;2022-09-03T00:00:53;4.80;;;3.30;;
7162;SDS011;3623;47.098;15.446;2022-09-03T00:03:26;3.30;;;3.10;;
7162;SDS011;3623;47.098;15.446;2022-09-03T00:06:02;3.40;;;3.20;;
7162;SDS011;3623;47.098;15.446;2022-09-03T00:08:37;4.60;;;4.20;;
7162;SDS011;3623;47.098;15.446;2022-09-03T00:11:10;4.93;;;4.47;;
7162;SDS011;3623;47.098;15.446;2022-09-03T00:13:43;4.00;;;3.80;;
7162;SDS011;3623;47.098;15.446;2022-09-03T00:16:16;4.15;;;3.90;;
7162;SDS011;3623;47.098;15.446;2022-09-03T00:18:47;5.00;;;4.17;;
7162;SDS011;3623;47.098;15.446;2022-09-03T00:21:29;4.20;;;3.90;;
7162;SDS011;3623;47.098;15.446;2022-09-03T00:24:02;4.10;;;3.80;;
7162;SDS011;3623;47.098;15.446;2022-09-03T00:26:33;5.53;;;4.10;;
7162;SDS011;3623;47.098;15.446;2022-09-03T00:29:05;4.20;;;3.80;;
7162;SDS011;3623;47.098;15.446;2022-09-03T00:31:37;4.70;;;4.30;;
7162;SDS011;3623;47.098;15.446;2022-09-03T00:34:09;4.40;;;4.00;;
7162;SDS011;3623;47.098;15.446;2022-09-03T00:36:46;5.85;;;4.00;;
7162;SDS011;3623;47.098;15.446;2022-09-03T00:39:14;5.25;;;4.85;;
7162;SDS011;3623;47.098;15.446;2022-09-03T00:41:46;4.93;;;4.60;;
7162;SDS011;3623;47.098;15.446;2022-09-03T00:44:31;5.28;;;3.78;;
7162;SDS011;3623;47.098;15.446;2022-09-03T00:47:14;4.57;;;4.18;;
7162;SDS011;3623;47.098;15.446;2022-09-03T00:49:51;4.40;;;4.00;;
7162;SDS011;3623;47.098;15.446;2022-09-03T00:52:32;4.63;;;4.33;;
7162;SDS011;3623;47.098;15.446;2022-09-03T00:55:12;4.22;;;3.92;;
7162;SDS011;3623;47.098;15.446;2022-09-03T00:57:55;5.93;;;4.87;;
7162;SDS011;3623;47.098;15.446;2022-09-03T01:00:34;4.80;;;4.38;;
7162;SDS011;3623;47.098;15.446;2022-09-03T01:03:05;5.00;;;4.43;;
7162;SDS011;3623;47.098;15.446;2022-09-03T01:05:42;4.13;;;3.88;;
7162;SDS011;3623;47.098;15.446;2022-09-03T01:08:29;5.70;;;4.32;;
7162;SDS011;3623;47.098;15.446;2022-09-03T01:11:08;4.50;;;4.28;;
7162;SDS011;3623;47.098;15.446;2022-09-03T01:13:45;4.07;;;3.78;;
7162;SDS011;3623;47.098;15.446;2022-09-03T01:16:21;4.20;;;3.90;;
7162;SDS011;3623;47.098;15.446;2022-09-03T01:19:01;3.95;;;3.70;;
7162;SDS011;3623;47.098;15.446;2022-09-03T01:21:41;4.78;;;4.47;;
7162;SDS011;3623;47.098;15.446;2022-09-03T01:24:45;4.43;;;4.03;;
7162;SDS011;3623;47.098;15.446;2022-09-03T01:27:37;4.60;;;4.28;;
7162;SDS011;3623;47.098;15.446;2022-09-03T01:30:14;4.10;;;3.80;;
7162;SDS011;3623;47.098;15.446;2022-09-03T01:32:45;4.30;;;3.95;;
7162;SDS011;3623;47.098;15.446;2022-09-03T01:35:18;4.45;;;4.22;;
7162;SDS011;3623;47.098;15.446;2022-09-03T01:37:54;4.00;;;3.70;;
7162;SDS011;3623;47.098;15.446;2022-09-03T01:40:32;4.32;;;4.05;;
7162;SDS011;3623;47.098;15.446;2022-09-03T01:43:21;3.67;;;3.38;;
7162;SDS011;3623;47.098;15.446;2022-09-03T01:46:03;6.80;;;4.25;;
7162;SDS011;3623;47.098;15.446;2022-09-03T01:48:42;5.50;;;5.10;;
7162;SDS011;3623;47.098;15.446;2022-09-03T01:51:18;4.55;;;4.25;;
7162;SDS011;3623;47.098;15.446;2022-09-03T01:53:55;4.70;;;4.40;;
7162;SDS011;3623;47.098;15.446;2022-09-03T01:56:37;5.13;;;4.82;;
7162;SDS011;3623;47.098;15.446;2022-09-03T01:59:19;4.80;;;4.50;;
7162;SDS011;3623;47.098;15.446;2022-09-03T02:01:54;5.45;;;5.07;;
7162;SDS011;3623;47.098;15.446;2022-09-03T02:04:27;5.40;;;5.10;;
7162;SDS011;3623;47.098;15.446;2022-09-03T02:06:57;5.90;;;5.50;;
7162;SDS011;3623;47.098;15.446;2022-09-03T02:09:26;5.60;;;5.00;;
7162;SDS011;3623;47.098;15.446;2022-09-03T02:11:55;5.00;;;4.65;;
7162;SDS011;3623;47.098;15.446;2022-09-03T02:14:28;5.25;;;4.93;;
7162;SDS011;3623;47.098;15.446;2022-09-03T02:16:58;4.65;;;4.25;;
7162;SDS011;3623;47.098;15.446;2022-09-03T02:19:27;5.03;;;4.72;;
7162;SDS011;3623;47.098;15.446;2022-09-03T02:21:56;4.50;;;4.20;;
7162;SDS011;3623;47.098;15.446;2022-09-03T02:24:24;4.50;;;4.20;;
7162;SDS011;3623;47.098;15.446;2022-09-03T02:26:53;4.18;;;3.97;;
7162;SDS011;3623;47.098;15.446;2022-09-03T02:29:21;5.10;;;4.65;;
7162;SDS011;3623;47.098;15.446;2022-09-03T02:31:49;4.97;;;4.68;;
7162;SDS011;3623;47.098;15.446;2022-09-03T02:34:18;4.78;;;4.47;;
7162;SDS011;3623;47.098;15.446;2022-09-03T02:36:45;4.72;;;4.38;;
7162;SDS011;3623;47.098;15.446;2022-09-03T02:39:13;5.10;;;4.45;;
7162;SDS011;3623;47.098;15.446;2022-09-03T02:41:41;5.60;;;5.10;;
7162;SDS011;3623;47.098;15.446;2022-09-03T02:44:11;4.10;;;3.90;;
7162;SDS011;3623;47.098;15.446;2022-09-03T02:46:42;4.68;;;4.38;;
7162;SDS011;3623;47.098;15.446;2022-09-03T02:49:12;5.07;;;4.68;;
7162;SDS011;3623;47.098;15.446;2022-09-03T02:51:41;7.05;;;5.00;;
7162;SDS011;3623;47.098;15.446;2022-09-03T02:54:09;6.18;;;5.63;;
7162;SDS011;3623;47.098;15.446;2022-09-03T02:56:38;4.68;;;4.47;;
7162;SDS011;3623;47.098;15.446;2022-09-03T02:59:06;5.38;;;4.97;;
7162;SDS011;3623;47.098;15.446;2022-09-03T03:01:34;5.75;;;5.30;;
7162;SDS011;3623;47.098;15.446;2022-09-03T03:04:02;4.93;;;4.63;;
7162;SDS011;3623;47.098;15.446;2022-09-03T03:06:29;5.10;;;4.80;;
7162;SDS011;3623;47.098;15.446;2022-09-03T03:08:58;4.85;;;4.55;;
7162;SDS011;3623;47.098;15.446;2022-09-03T03:11:28;5.50;;;5.00;;
7162;SDS011;3623;47.098;15.446;2022-09-03T03:13:56;5.47;;;4.50;;
7162;SDS011;3623;47.098;15.446;2022-09-03T03:16:23;7.70;;;4.90;;
7162;SDS011;3623;47.098;15.446;2022-09-03T03:18:50;4.97;;;4.65;;
7162;SDS011;3623;47.098;15.446;2022-09-03T03:21:18;4.75;;;4.45;;
7162;SDS011;3623;47.098;15.446;2022-09-03T03:23:45;6.05;;;5.55;;
7162;SDS011;3623;47.098;15.446;2022-09-03T03:26:14;5.50;;;5.20;;
7162;SDS011;3623;47.098;15.446;2022-09-03T03:28:43;6.70;;;5.53;;
7162;SDS011;3623;47.098;15.446;2022-09-03T03:31:14;6.13;;;5.72;;
7162;SDS011;3623;47.098;15.446;2022-09-03T03:33:42;6.40;;;5.88;;
7162;SDS011;3623;47.098;15.446;2022-09-03T03:36:10;6.45;;;5.50;;
7162;SDS011;3623;47.098;15.446;2022-09-03T03:38:40;5.88;;;5.43;;
7162;SDS011;3623;47.098;15.446;2022-09-03T03:41:08;6.35;;;5.82;;
7162;SDS011;3623;47.098;15.446;2022-09-03T03:43:37;6.03;;;5.45;;
7162;SDS011;3623;47.098;15.446;2022-09-03T03:46:04;6.13;;;5.72;;
7162;SDS011;3623;47.098;15.446;2022-09-03T03:48:32;5.75;;;5.30;;
7162;SDS011;3623;47.098;15.446;2022-09-03T03:50:59;5.38;;;4.97;;
7162;SDS011;3623;47.098;15.446;2022-09-03T03:53:29;6.82;;;6.03;;
7162;SDS011;3623;47.098;15.446;2022-09-03T03:55:56;6.20;;;5.85;;
7162;SDS011;3623;47.098;15.446;2022-09-03T03:58:25;5.50;;;5.20;;
7162;SDS011;3623;47.098;15.446;2022-09-03T04:00:54;5.97;;;5.47;;
7162;SDS011;3623;47.098;15.446;2022-09-03T04:03:29;6.13;;;5.63;;
7162;SDS011;3623;47.098;15.446;2022-09-03T04:05:56;6.30;;;5.78;;
7162;SDS011;3623;47.098;15.446;2022-09-03T04:08:24;8.23;;;5.88;;
7162;SDS011;3623;47.098;15.446;2022-09-03T04:10:52;6.63;;;6.07;;
7162;SDS011;3623;47.098;15.446;2022-09-03T04:13:19;5.50;;;5.10;;
7162;SDS011;3623;47.098;15.446;2022-09-03T04:15:46;7.22;;;5.40;;
7162;SDS011;3623;47.098;15.446;2022-09-03T04:18:15;6.00;;;5.40;;
7162;SDS011;3623;47.098;15.446;2022-09-03T04:20:42;5.68;;;4.95;;
7162;SDS011;3623;47.098;15.446;2022-09-03T04:23:09;5.35;;;4.97;;
7162;SDS011;3623;47.098;15.446;2022-09-03T04:25:37;5.13;;;4.82;;
7162;SDS011;3623;47.098;15.446;2022-09-03T04:28:06;5.57;;;5.18;;
7162;SDS011;3623;47.098;15.446;2022-09-03T04:30:33;6.82;;;5.75;;
7162;SDS011;3623;47.098;15.446;2022-09-03T04:33:00;5.88;;;5.57;;
7162;SDS011;3623;47.098;15.446;2022-09-03T04:35:28;7.07;;;6.57;;
7162;SDS011;3623;47.098;15.446;2022-09-03T04:37:58;5.93;;;5.22;;
7162;SDS011;3623;47.098;15.446;2022-09-03T04:40:26;6.15;;;5.75;;
7162;SDS011;3623;47.098;15.446;2022-09-03T04:42:55;5.20;;;4.80;;
7162;SDS011;3623;47.098;15.446;2022-09-03T04:45:24;7.88;;;5.68;;
7162;SDS011;3623;47.098;15.446;2022-09-03T04:47:56;5.20;;;4.78;;
7162;SDS011;3623;47.098;15.446;2022-09-03T04:50:24;5.22;;;4.72;;
7162;SDS011;3623;47.098;15.446;2022-09-03T04:52:53;6.63;;;6.10;;
7162;SDS011;3623;47.098;15.446;2022-09-03T04:55:23;6.40;;;5.80;;
7162;SDS011;3623;47.098;15.446;2022-09-03T04:57:50;7.03;;;5.78;;
7162;SDS011;3623;47.098;15.446;2022-09-03T05:00:17;5.32;;;4.97;;
7162;SDS011;3623;47.098;15.446;2022-09-03T05:02:44;5.45;;;4.95;;
7162;SDS011;3623;47.098;15.446;2022-09-03T05:05:13;6.30;;;5.70;;
7162;SDS011;3623;47.098;15.446;2022-09-03T05:07:40;6.20;;;5.72;;
7162;SDS011;3623;47.098;15.446;2022-09-03T05:10:10;5.85;;;5.45;;
7162;SDS011;3623;47.098;15.446;2022-09-03T05:12:40;5.53;;;5.03;;
7162;SDS011;3623;47.098;15.446;2022-09-03T05:15:07;5.43;;;5.05;;
7162;SDS011;3623;47.098;15.446;2022-09-03T05:17:35;6.10;;;5.68;;
7162;SDS011;3623;47.098;15.446;2022-09-03T05:20:03;5.85;;;5.47;;
7162;SDS011;3623;47.098;15.446;2022-09-03T05:22:32;6.40;;;5.93;;
7162;SDS011;3623;47.098;15.446;2022-09-03T05:24:59;6.35;;;5.85;;
7162;SDS011;3623;47.098;15.446;2022-09-03T05:27:29;6.28;;;5.88;;
7162;SDS011;3623;47.098;15.446;2022-09-03T05:29:57;6.07;;;5.68;;
7162;SDS011;3623;47.098;15.446;2022-09-03T05:32:24;5.45;;;5.07;;
7162;SDS011;3623;47.098;15.446;2022-09-03T05:34:53;5.32;;;4.93;;
7162;SDS011;3623;47.098;15.446;2022-09-03T05:37:20;6.22;;;5.78;;
7162;SDS011;3623;47.098;15.446;2022-09-03T05:39:48;5.95;;;5.45;;
7162;SDS011;3623;47.098;15.446;2022-09-03T05:42:15;5.47;;;5.15;;
7162;SDS011;3623;47.098;15.446;2022-09-03T05:44:44;5.15;;;4.82;;
7162;SDS011;3623;47.098;15.446;2022-09-03T05:47:13;7.90;;;5.15;;
7162;SDS011;3623;47.098;15.446;2022-09-03T05:49:40;5.25;;;4.85;;
7162;SDS011;3623;47.098;15.446;2022-09-03T05:52:07;6.28;;;5.88;;
7162;SDS011;3623;47.098;15.446;2022-09-03T05:54:34;5.78;;;5.38;;
7162;SDS011;3623;47.098;15.446;2022-09-03T05:57:02;6.32;;;5.82;;
7162;SDS011;3623;47.098;15.446;2022-09-03T05:59:29;5.90;;;5.60;;
7162;SDS011;3623;47.098;15.446;2022-09-03T06:01:58;7.00;;;6.60;;
7162;SDS011;3623;47.098;15.446;2022-09-03T06:04:25;6.93;;;6.28;;
7162;SDS011;3623;47.098;15.446;2022-09-03T06:06:52;5.60;;;5.20;;
7162;SDS011;3623;47.098;15.446;2022-09-03T06:09:21;5.35;;;4.85;;
7162;SDS011;3623;47.098;15.446;2022-09-03T06:11:48;5.60;;;5.20;;
7162;SDS011;3623;47.098;15.446;2022-09-03T06:14:16;5.28;;;4.97;;
7162;SDS011;3623;47.098;15.446;2022-09-03T06:16:43;5.83;;;5.30;;
7162;SDS011;3623;47.098;15.446;2022-09-03T06:19:14;5.65;;;5.18;;
7162;SDS011;3623;47.098;15.446;2022-09-03T06:21:42;5.77;;;5.37;;
7162;SDS011;3623;47.098;15.446;2022-09-03T06:24:11;5.30;;;4.90;;
7162;SDS011;3623;47.098;15.446;2022-09-03T06:26:39;5.43;;;5.03;;
7162;SDS011;3623;47.098;15.446;2022-09-03T06:29:06;5.00;;;4.20;;
7162;SDS011;3623;47.098;15.446;2022-09-03T06:31:34;5.28;;;4.90;;
7162;SDS011;3623;47.098;15.446;2022-09-03T06:34:02;5.13;;;4.82;;
7162;SDS011;3623;47.098;15.446;2022-09-03T06:36:31;5.05;;;4.40;;
7162;SDS011;3623;47.098;15.446;2022-09-03T06:38:59;4.70;;;4.23;;
7162;SDS011;3623;47.098;15.446;2022-09-03T06:41:26;5.80;;;4.23;;
7162;SDS011;3623;47.098;15.446;2022-09-03T06:43:57;5.23;;;4.20;;
7162;SDS011;3623;47.098;15.446;2022-09-03T06:46:27;3.97;;;3.70;;
7162;SDS011;3623;47.098;15.446;2022-09-03T06:48:56;4.03;;;3.83;;
7162;SDS011;3623;47.098;15.446;2022-09-03T06:51:23;4.53;;;4.23;;
7162;SDS011;3623;47.098;15.446;2022-09-03T06:53:54;5.40;;;4.60;;
7162;SDS011;3623;47.098;15.446;2022-09-03T06:56:25;4.67;;;4.27;;
7162;SDS011;3623;47.098;15.446;2022-09-03T06:58:54;8.60;;;4.33;;
7162;SDS011;3623;47.098;15.446;2022-09-03T07:01:22;4.23;;;3.80;;
7162;SDS011;3623;47.098;15.446;2022-09-03T07:03:51;5.10;;;4.70;;
7162;SDS011;3623;47.098;15.446;2022-09-03T07:06:21;5.53;;;4.67;;
7162;SDS011;3623;47.098;15.446;2022-09-03T07:08:50;5.53;;;4.40;;
7162;SDS011;3623;47.098;15.446;2022-09-03T07:11:20;4.20;;;3.80;;
7162;SDS011;3623;47.098;15.446;2022-09-03T07:13:51;5.33;;;4.37;;
7162;SDS011;3623;47.098;15.446;2022-09-03T07:16:20;4.37;;;4.07;;
7162;SDS011;3623;47.098;15.446;2022-09-03T07:18:48;4.40;;;4.00;;
7162;SDS011;3623;47.098;15.446;2022-09-03T07:21:16;4.47;;;4.07;;
7162;SDS011;3623;47.098;15.446;2022-09-03T07:23:45;4.00;;;3.70;;
7162;SDS011;3623;47.098;15.446;2022-09-03T07:26:15;4.00;;;3.80;;
7162;SDS011;3623;47.098;15.446;2022-09-03T07:28:44;4.83;;;4.40;;
7162;SDS011;3623;47.098;15.446;2022-09-03T07:31:14;4.23;;;3.90;;
7162;SDS011;3623;47.098;15.446;2022-09-03T07:33:43;4.03;;;3.73;;
7162;SDS011;3623;47.098;15.446;2022-09-03T07:36:11;4.10;;;3.80;;
7162;SDS011;3623;47.098;15.446;2022-09-03T07:38:40;4.43;;;4.10;;
7162;SDS011;3623;47.098;15.446;2022-09-03T07:41:09;4.47;;;4.17;;
7162;SDS011;3623;47.098;15.446;2022-09-03T07:43:39;3.93;;;3.73;;
7162;SDS011;3623;47.098;15.446;2022-09-03T07:46:11;3.70;;;3.50;;
7162;SDS011;3623;47.098;15.446;2022-09-03T07:48:40;4.30;;;3.97;;
7162;SDS011;3623;47.098;15.446;2022-09-03T07:51:08;4.57;;;4.27;;
7162;SDS011;3623;47.098;15.446;2022-09-03T07:53:35;4.33;;;4.00;;
7162;SDS011;3623;47.098;15.446;2022-09-03T07:56:03;4.10;;;3.90;;
7162;SDS011;3623;47.098;15.446;2022-09-03T07:58:32;4.70;;;4.30;;
7162;SDS011;3623;47.098;15.446;2022-09-03T08:01:04;4.00;;;3.70;;
7162;SDS011;3623;47.098;15.446;2022-09-03T08:03:32;4.50;;;4.00;;
7162;SDS011;3623;47.098;15.446;2022-09-03T08:06:00;4.00;;;3.80;;
7162;SDS011;3623;47.098;15.446;2022-09-03T08:08:28;3.57;;;3.27;;
7162;SDS011;3623;47.098;15.446;2022-09-03T08:11:02;4.83;;;3.80;;
7162;SDS011;3623;47.098;15.446;2022-09-03T08:13:32;5.03;;;4.10;;
7162;SDS011;3623;47.098;15.446;2022-09-03T08:15:59;5.27;;;4.00;;
7162;SDS011;3623;47.098;15.446;2022-09-03T08:18:27;4.30;;;4.00;;
7162;SDS011;3623;47.098;15.446;2022-09-03T08:21:02;5.67;;;4.33;;
7162;SDS011;3623;47.098;15.446;2022-09-03T08:23:31;4.13;;;3.83;;
7162;SDS011;3623;47.098;15.446;2022-09-03T08:25:59;3.77;;;3.47;;
7162;SDS011;3623;47.098;15.446;2022-09-03T08:28:27;3.77;;;3.57;;
7162;SDS011;3623;47.098;15.446;2022-09-03T08:31:03;3.90;;;3.60;;
7162;SDS011;3623;47.098;15.446;2022-09-03T08:33:33;4.27;;;3.97;;
7162;SDS011;3623;47.098;15.446;2022-09-03T08:36:04;3.87;;;3.67;;
7162;SDS011;3623;47.098;15.446;2022-09-03T08:38:33;4.00;;;3.67;;
7162;SDS011;3623;47.098;15.446;2022-09-03T08:41:04;3.97;;;3.60;;
7162;SDS011;3623;47.098;15.446;2022-09-03T08:43:38;3.80;;;3.40;;
7162;SDS011;3623;47.098;15.446;2022-09-03T08:46:25;6.50;;;3.97;;
7162;SDS011;3623;47.098;15.446;2022-09-03T08:49:00;4.67;;;4.20;;
7162;SDS011;3623;47.098;15.446;2022-09-03T08:51:27;3.50;;;3.20;;
7162;SDS011;3623;47.098;15.446;2022-09-03T08:53:56;4.63;;;4.30;;
7162;SDS011;3623;47.098;15.446;2022-09-03T08:56:25;6.20;;;4.30;;
7162;SDS011;3623;47.098;15.446;2022-09-03T08:58:54;6.67;;;4.10;;
7162;SDS011;3623;47.098;15.446;2022-09-03T09:01:28;3.90;;;3.70;;
7162;SDS011;3623;47.098;15.446;2022-09-03T09:04:07;5.30;;;3.80;;
7162;SDS011;3623;47.098;15.446;2022-09-03T09:06:45;3.90;;;3.33;;
7162;SDS011;3623;47.098;15.446;2022-09-03T09:09:22;4.50;;;4.10;;
7162;SDS011;3623;47.098;15.446;2022-09-03T09:11:57;4.20;;;3.93;;
7162;SDS011;3623;47.098;15.446;2022-09-03T09:14:36;4.50;;;4.20;;
7162;SDS011;3623;47.098;15.446;2022-09-03T09:17:13;4.07;;;3.70;;
7162;SDS011;3623;47.098;15.446;2022-09-03T09:19:56;4.53;;;3.37;;
7162;SDS011;3623;47.098;15.446;2022-09-03T09:22:31;4.73;;;3.70;;
7162;SDS011;3623;47.098;15.446;2022-09-03T09:25:03;4.20;;;3.90;;
7162;SDS011;3623;47.098;15.446;2022-09-03T09:27:37;4.97;;;3.93;;
7162;SDS011;3623;47.098;15.446;2022-09-03T09:30:12;3.60;;;3.40;;
7162;SDS011;3623;47.098;15.446;2022-09-03T09:32:42;4.20;;;3.90;;
7162;SDS011;3623;47.098;15.446;2022-09-03T09:35:13;6.47;;;4.73;;
7162;SDS011;3623;47.098;15.446;2022-09-03T09:37:45;4.80;;;4.40;;
7162;SDS011;3623;47.098;15.446;2022-09-03T09:40:25;4.30;;;3.80;;
7162;SDS011;3623;47.098;15.446;2022-09-03T09:43:03;4.53;;;3.03;;
7162;SDS011;3623;47.098;15.446;2022-09-03T09:45:31;3.53;;;3.27;;
7162;SDS011;3623;47.098;15.446;2022-09-03T09:47:59;3.97;;;3.57;;
7162;SDS011;3623;47.098;15.446;2022-09-03T09:50:29;3.93;;;3.73;;
7162;SDS011;3623;47.098;15.446;2022-09-03T09:53:00;3.70;;;3.50;;
7162;SDS011;3623;47.098;15.446;2022-09-03T09:55:29;3.70;;;3.50;;
7162;SDS011;3623;47.098;15.446;2022-09-03T09:58:03;3.57;;;3.37;;
7162;SDS011;3623;47.098;15.446;2022-09-03T10:00:33;3.80;;;3.60;;
7162;SDS011;3623;47.098;15.446;2022-09-03T10:03:05;3.53;;;3.23;;
7162;SDS011;3623;47.098;15.446;2022-09-03T10:05:38;3.20;;;3.00;;
7162;SDS011;3623;47.098;15.446;2022-09-03T10:08:06;3.60;;;3.40;;
7162;SDS011;3623;47.098;15.446;2022-09-03T10:10:45;3.80;;;3.60;;
7162;SDS011;3623;47.098;15.446;2022-09-03T10:13:16;3.77;;;3.57;;
7162;SDS011;3623;47.098;15.446;2022-09-03T10:15:47;4.13;;;3.80;;
7162;SDS011;3623;47.098;15.446;2022-09-03T10:18:18;4.13;;;3.73;;
7162;SDS011;3623;47.098;15.446;2022-09-03T10:20:57;3.53;;;3.33;;
7162;SDS011;3623;47.098;15.446;2022-09-03T10:23:31;3.90;;;3.70;;
7162;SDS011;3623;47.098;15.446;2022-09-03T10:26:05;4.03;;;3.83;;
7162;SDS011;3623;47.098;15.446;2022-09-03T10:28:37;3.70;;;3.40;;
7162;SDS011;3623;47.098;15.446;2022-09-03T10:34:05;4.20;;;3.90;;
7162;SDS011;3623;47.098;15.446;2022-09-03T10:36:41;3.47;;;3.17;;
7162;SDS011;3623;47.098;15.446;2022-09-03T10:39:19;3.10;;;2.90;;
7162;SDS011;3623;47.098;15.446;2022-09-03T10:41:53;3.17;;;3.00;;
7162;SDS011;3623;47.098;15.446;2022-09-03T10:44:36;4.00;;;3.60;;
7162;SDS011;3623;47.098;15.446;2022-09-03T10:47:20;3.00;;;2.80;;
7162;SDS011;3623;47.098;15.446;2022-09-03T10:50:00;2.80;;;2.70;;
7162;SDS011;3623;47.098;15.446;2022-09-03T10:52:38;4.20;;;2.93;;
7162;SDS011;3623;47.098;15.446;2022-09-03T10:55:19;3.10;;;2.90;;
7162;SDS011;3623;47.098;15.446;2022-09-03T10:57:57;3.60;;;2.50;;
7162;SDS011;3623;47.098;15.446;2022-09-03T11:00:46;3.13;;;2.93;;
7162;SDS011;3623;47.098;15.446;2022-09-03T11:03:24;3.20;;;3.00;;
7162;SDS011;3623;47.098;15.446;2022-09-03T11:06:06;3.17;;;2.60;;
7162;SDS011;3623;47.098;15.446;2022-09-03T11:08:40;3.33;;;2.87;;
7162;SDS011;3623;47.098;15.446;2022-09-03T11:11:11;3.50;;;3.20;;
7162;SDS011;3623;47.098;15.446;2022-09-03T11:13:45;3.50;;;3.20;;
7162;SDS011;3623;47.098;15.446;2022-09-03T11:16:16;3.60;;;3.30;;
7162;SDS011;3623;47.098;15.446;2022-09-03T11:18:47;4.97;;;3.37;;
7162;SDS011;3623;47.098;15.446;2022-09-03T11:21:17;3.60;;;3.30;;
7162;SDS011;3623;47.098;15.446;2022-09-03T11:23:51;2.90;;;2.80;;
7162;SDS011;3623;47.098;15.446;2022-09-03T11:26:22;2.90;;;2.80;;
7162;SDS011;3623;47.098;15.446;2022-09-03T11:28:53;4.33;;;3.63;;
7162;SDS011;3623;47.098;15.446;2022-09-03T11:31:25;2.90;;;2.70;;
7162;SDS011;3623;47.098;15.446;2022-09-03T11:34:04;3.27;;;2.97;;
7162;SDS011;3623;47.098;15.446;2022-09-03T11:36:34;3.10;;;2.90;;
7162;SDS011;3623;47.098;15.446;2022-09-03T11:42:02;2.63;;;2.50;;
7162;SDS011;3623;47.098;15.446;2022-09-03T11:44:35;2.60;;;2.50;;
7162;SDS011;3623;47.098;15.446;2022-09-03T11:47:12;3.50;;;2.73;;
7162;SDS011;3623;47.098;15.446;2022-09-03T11:49:44;2.50;;;2.40;;
7162;SDS011;3623;47.098;15.446;2022-09-03T11:52:24;2.60;;;2.40;;
7162;SDS011;3623;47.098;15.446;2022-09-03T11:54:54;2.60;;;2.50;;
7162;SDS011;3623;47.098;15.446;2022-09-03T11:57:22;2.60;;;2.50;;
7162;SDS011;3623;47.098;15.446;2022-09-03T11:59:54;3.17;;;2.40;;
7162;SDS011;3623;47.098;15.446;2022-09-03T12:02:35;2.67;;;2.47;;
7162;SDS011;3623;47.098;15.446;2022-09-03T12:05:13;2.60;;;2.50;;
7162;SDS011;3623;47.098;15.446;2022-09-03T12:10:45;2.80;;;2.60;;
7162;SDS011;3623;47.098;15.446;2022-09-03T12:13:26;3.00;;;2.80;;
7162;SDS011;3623;47.098;15.446;2022-09-03T12:16:21;3.20;;;2.73;;
7162;SDS011;3623;47.098;15.446;2022-09-03T12:19:02;3.00;;;2.77;;
7162;SDS011;3623;47.098;15.446;2022-09-03T12:21:36;2.07;;;1.97;;
7162;SDS011;3623;47.098;15.446;2022-09-03T12:24:05;4.70;;;2.53;;
7162;SDS011;3623;47.098;15.446;2022-09-03T12:26:39;3.83;;;2.60;;
7162;SDS011;3623;47.098;15.446;2022-09-03T12:29:18;3.03;;;2.73;;
7162;SDS011;3623;47.098;15.446;2022-09-03T12:31:49;6.50;;;2.57;;
7162;SDS011;3623;47.098;15.446;2022-09-03T12:34:17;2.80;;;2.33;;
7162;SDS011;3623;47.098;15.446;2022-09-03T12:36:47;2.87;;;2.77;;
7162;SDS011;3623;47.098;15.446;2022-09-03T12:39:17;2.47;;;2.37;;
7162;SDS011;3623;47.098;15.446;2022-09-03T12:41:53;6.20;;;2.63;;
7162;SDS011;3623;47.098;15.446;2022-09-03T12:44:25;2.33;;;2.23;;
7162;SDS011;3623;47.098;15.446;2022-09-03T12:47:03;3.93;;;2.47;;
7162;SDS011;3623;47.098;15.446;2022-09-03T12:49:36;2.50;;;2.40;;
7162;SDS011;3623;47.098;15.446;2022-09-03T12:52:07;2.97;;;2.77;;
7162;SDS011;3623;47.098;15.446;2022-09-03T12:54:42;2.83;;;2.33;;
7162;SDS011;3623;47.098;15.446;2022-09-03T12:57:18;2.67;;;2.53;;
7162;SDS011;3623;47.098;15.446;2022-09-03T12:59:50;2.53;;;2.33;;
7162;SDS011;3623;47.098;15.446;2022-09-03T13:02:22;2.87;;;2.70;;
7162;SDS011;3623;47.098;15.446;2022-09-03T13:04:52;2.70;;;2.43;;
7162;SDS011;3623;47.098;15.446;2022-09-03T13:07:21;2.30;;;2.20;;
7162;SDS011;3623;47.098;15.446;2022-09-03T13:09:52;2.70;;;2.50;;
7162;SDS011;3623;47.098;15.446;2022-09-03T13:12:30;2.87;;;2.67;;
7162;SDS011;3623;47.098;15.446;2022-09-03T13:15:04;3.47;;;3.20;;
7162;SDS011;3623;47.098;15.446;2022-09-03T13:17:46;3.17;;;2.93;;
7162;SDS011;3623;47.098;15.446;2022-09-03T13:20:33;2.87;;;2.57;;
7162;SDS011;3623;47.098;15.446;2022-09-03T13:23:07;3.57;;;2.60;;
7162;SDS011;3623;47.098;15.446;2022-09-03T13:25:56;4.30;;;2.60;;
7162;SDS011;3623;47.098;15.446;2022-09-03T13:28:38;2.40;;;2.30;;
7162;SDS011;3623;47.098;15.446;2022-09-03T13:31:22;2.73;;;2.63;;
7162;SDS011;3623;47.098;15.446;2022-09-03T13:33:56;2.80;;;2.60;;
7162;SDS011;3623;47.098;15.446;2022-09-03T13:36:29;2.80;;;2.67;;
7162;SDS011;3623;47.098;15.446;2022-09-03T13:39:03;2.97;;;2.77;;
7162;SDS011;3623;47.098;15.446;2022-09-03T13:41:38;3.13;;;2.90;;
7162;SDS011;3623;47.098;15.446;2022-09-03T13:44:13;2.73;;;2.63;;
7162;SDS011;3623;47.098;15.446;2022-09-03T13:46:45;3.17;;;2.97;;
7162;SDS011;3623;47.098;15.446;2022-09-03T13:49:25;3.43;;;3.23;;
7162;SDS011;3623;47.098;15.446;2022-09-03T13:52:24;2.60;;;2.50;;
7162;SDS011;3623;47.098;15.446;2022-09-03T13:54:58;3.30;;;3.00;;
7162;SDS011;3623;47.098;15.446;2022-09-03T13:57:33;3.13;;;2.40;;
7162;SDS011;3623;47.098;15.446;2022-09-03T14:00:07;5.27;;;3.03;;
7162;SDS011;3623;47.098;15.446;2022-09-03T14:02:42;2.73;;;2.53;;
7162;SDS011;3623;47.098;15.446;2022-09-03T14:05:18;3.10;;;2.90;;
7162;SDS011;3623;47.098;15.446;2022-09-03T14:08:08;2.60;;;2.50;;
7162;SDS011;3623;47.098;15.446;2022-09-03T14:10:44;2.87;;;2.67;;
7162;SDS011;3623;47.098;15.446;2022-09-03T14:13:21;4.33;;;3.20;;
7162;SDS011;3623;47.098;15.446;2022-09-03T14:15:59;3.80;;;3.57;;
7162;SDS011;3623;47.098;15.446;2022-09-03T14:18:38;3.70;;;3.27;;
7162;SDS011;3623;47.098;15.446;2022-09-03T14:21:13;3.50;;;3.30;;
7162;SDS011;3623;47.098;15.446;2022-09-03T14:23:44;3.60;;;3.30;;
7162;SDS011;3623;47.098;15.446;2022-09-03T14:26:17;6.80;;;3.30;;
7162;SDS011;3623;47.098;15.446;2022-09-03T14:28:56;2.60;;;2.40;;
7162;SDS011;3623;47.098;15.446;2022-09-03T14:31:29;2.70;;;2.50;;
7162;SDS011;3623;47.098;15.446;2022-09-03T14:34:25;3.73;;;2.93;;
7162;SDS011;3623;47.098;15.446;2022-09-03T14:37:03;3.00;;;2.37;;
7162;SDS011;3623;47.098;15.446;2022-09-03T14:39:45;3.00;;;2.80;;
7162;SDS011;3623;47.098;15.446;2022-09-03T14:42:22;3.77;;;2.87;;
7162;SDS011;3623;47.098;15.446;2022-09-03T14:51:08;2.70;;;2.60;;
7162;SDS011;3623;47.098;15.446;2022-09-03T14:54:10;2.80;;;2.60;;
7162;SDS011;3623;47.098;15.446;2022-09-03T14:56:55;3.10;;;2.90;;
7162;SDS011;3623;47.098;15.446;2022-09-03T15:02:55;2.63;;;2.43;;
7162;SDS011;3623;47.098;15.446;2022-09-03T15:11:29;3.30;;;3.10;;
7162;SDS011;3623;47.098;15.446;2022-09-03T15:14:00;2.67;;;2.57;;
7162;SDS011;3623;47.098;15.446;2022-09-03T15:16:37;3.43;;;2.80;;
7162;SDS011;3623;47.098;15.446;2022-09-03T15:19:23;2.87;;;2.70;;
7162;SDS011;3623;47.098;15.446;2022-09-03T15:22:10;2.93;;;2.70;;
7162;SDS011;3623;47.098;15.446;2022-09-03T15:24:47;3.00;;;2.80;;
7162;SDS011;3623;47.098;15.446;2022-09-03T15:27:34;4.57;;;4.00;;
7162;SDS011;3623;47.098;15.446;2022-09-03T15:30:13;3.57;;;2.40;;
7162;SDS011;3623;47.098;15.446;2022-09-03T15:32:51;4.33;;;2.50;;
7162;SDS011;3623;47.098;15.446;2022-09-03T15:35:33;3.00;;;2.43;;
7162;SDS011;3623;47.098;15.446;2022-09-03T15:38:23;2.80;;;2.60;;
7162;SDS011;3623;47.098;15.446;2022-09-03T15:41:07;2.60;;;2.50;;
7162;SDS011;3623;47.098;15.446;2022-09-03T15:43:42;3.10;;;2.70;;
7162;SDS011;3623;47.098;15.446;2022-09-03T15:46:28;2.60;;;2.50;;
7162;SDS011;3623;47.098;15.446;2022-09-03T15:49:04;4.23;;;2.67;;
7162;SDS011;3623;47.098;15.446;2022-09-03T15:51:40;3.50;;;3.00;;
7162;SDS011;3623;47.098;15.446;2022-09-03T15:54:31;2.80;;;2.60;;
7162;SDS011;3623;47.098;15.446;2022-09-03T15:57:08;2.87;;;2.77;;
7162;SDS011;3623;47.098;15.446;2022-09-03T15:59:40;2.77;;;2.57;;